• Join FlightAware (Why Join?)
  • Login
  • US Flag 
11:58AM EST


 

Airport Tracker/Info


-or-


 

Live Flight TrackerFlight Track Log ✈ AAY862 ✈ 08-Jun-2014 ✈ KPIE - KCID

Flight Track Log - Related Links

Times and Time Zones

All times are in EDT time to prevent confusion due to time zone crossing. See the AAY862 flight status page for this flight to view local times or setup timezone preferences in your user account.

Time Position Orientation Groundspeed Altitude Reporting Facility
EDT Latitude Longitude Course Direction KTS MPH feet Rate Location/Type
02:06PM 27.9333 -82.7000 24° Northeast 174 200 900  Level Tampa TRACON
02:06PM 27.9667 -82.6833 24° Northeast 225 259 1,600 2,081 Climbing Tampa TRACON
02:09PM 28.1164 -82.6950 356° North 296 341 6,900 2,635 Climbing Jacksonville Center
02:10PM 28.1917 -82.7206 343° North 289 333 9,900 2,300 Climbing Jacksonville Center
02:11PM 28.2731 -82.7536 340° North 289 333 11,500 1,850 Climbing Jacksonville Center
02:12PM 28.3647 -82.7842 344° North 315 362 13,600 2,118 Climbing Jacksonville Center
02:13PM 28.4672 -82.8169 344° North 350 403 15,700 2,100 Climbing Jacksonville Center
02:14PM 28.5736 -82.8547 343° North 377 434 17,800 2,033 Climbing Jacksonville Center
02:15PM 28.6842 -82.8831 347° North 390 449 19,800 1,900 Climbing Jacksonville Center
02:16PM 28.7928 -82.9306 339° North 403 464 21,600 1,563 Climbing Jacksonville Center
02:17PM 28.8950 -82.9994 329° Northwest 409 471 22,900 1,250 Climbing Jacksonville Center
02:18PM 29.0014 -83.0731 329° Northwest 431 496 24,100 1,190 Climbing Jacksonville Center
02:19PM 29.1097 -83.1469 329° Northwest 449 517 25,300 1,550 Climbing Jacksonville Center
02:20PM 29.2244 -83.2233 330° Northwest 460 529 27,200 1,900 Climbing Jacksonville Center
02:21PM 29.3453 -83.2953 333° Northwest 459 528 29,100 1,587 Climbing Jacksonville Center
02:22PM 29.4556 -83.3600 333° Northwest 449 517 30,400 1,100 Climbing Jacksonville Center
02:23PM 29.5661 -83.4228 334° Northwest 449 517 31,300 800 Climbing Jacksonville Center
02:24PM 29.6764 -83.4903 332° Northwest 444 511 32,000 353 Climbing Jacksonville Center
02:25PM 29.7889 -83.5531 334° Northwest 444 511 32,000  Level Jacksonville Center
02:26PM 29.9033 -83.6208 333° Northwest 449 517 32,000  Level Jacksonville Center
02:27PM 30.0156 -83.6867 333° Northwest 449 517 32,000  Level Jacksonville Center
02:28PM 30.1258 -83.7522 333° Northwest 449 517 32,000  Level Jacksonville Center
02:29PM 30.2381 -83.8158 334° Northwest 449 517 32,000 -50 Level Jacksonville Center
02:30PM 30.3483 -83.8842 332° Northwest 449 517 31,900  Descending Jacksonville Center
02:31PM 30.4606 -83.9481 334° Northwest 449 517 32,000 50 Climbing Jacksonville Center
02:32PM 30.5497 -84.0047 331° Northwest 449 517 32,000  Level Jacksonville Center
02:33PM 30.6722 -84.0761 333° Northwest 444 511 32,000  Level Jacksonville Center
02:34PM 30.7844 -84.1453 332° Northwest 449 517 32,000  Level Jacksonville Center
02:35PM 30.8964 -84.2144 332° Northwest 454 522 32,000  Level Jacksonville Center
02:36PM 31.0064 -84.2814 332° Northwest 454 522 32,000  Level Jacksonville Center
02:37PM 31.1225 -84.3511 333° Northwest 454 522 32,000  Level Jacksonville Center
02:38PM 31.2325 -84.4183 332° Northwest 454 522 32,000  Level Jacksonville Center
02:39PM 31.3444 -84.4858 333° Northwest 449 517 32,000 160 Level Jacksonville Center
02:41PM 31.5886 -84.6361 332° Northwest 472 543 32,500 481 Climbing Atlanta Center
02:42PM 31.6989 -84.7053 332° Northwest 470 541 33,500 750 Climbing Atlanta Center
02:43PM 31.8092 -84.7744 332° Northwest 453 521 34,000 250 Climbing Atlanta Center
02:44PM 31.9131 -84.8486 329° Northwest 443 510 34,000  Level Atlanta Center
02:45PM 32.0189 -84.9256 328° Northwest 443 510 34,000  Level Atlanta Center
02:46PM 32.1292 -84.9978 331° Northwest 443 510 34,000  Level Atlanta Center
02:47PM 32.2369 -85.0678 331° Northwest 443 510 34,000  Level Atlanta Center
02:48PM 32.3389 -85.1231 335° Northwest 437 503 34,000  Level Atlanta Center
02:49PM 32.4489 -85.1883 333° Northwest 442 509 34,000  Level Atlanta Center
02:50PM 32.5589 -85.2539 333° Northwest 442 509 34,000  Level Atlanta Center
02:51PM 32.6708 -85.3194 334° Northwest 447 514 34,000  Level Atlanta Center
02:52PM 32.7953 -85.3956 333° Northwest 452 520 34,000  Level Atlanta Center
02:53PM 32.9031 -85.4614 333° Northwest 446 513 34,000  Level Atlanta Center
02:54PM 33.0150 -85.5278 334° Northwest 446 513 34,000  Level Atlanta Center
02:55PM 33.1228 -85.5964 332° Northwest 446 513 34,000  Level Atlanta Center
02:56PM 33.2325 -85.6606 334° Northwest 446 513 34,000  Level Atlanta Center
02:57PM 33.3319 -85.7294 330° Northwest 439 505 34,000  Level Atlanta Center
02:58PM 33.4519 -85.7967 335° Northwest 439 505 34,000  Level Atlanta Center
02:59PM 33.5617 -85.8636 333° Northwest 439 505 34,000  Level Atlanta Center
03:00PM 33.6586 -85.9256 332° Northwest 439 505 34,000  Level Atlanta Center
03:01PM 33.7703 -85.9956 332° Northwest 439 505 34,000  Level Atlanta Center
03:02PM 33.8800 -86.0631 333° Northwest 439 505 34,000  Level Atlanta Center
03:03PM 33.9914 -86.1308 333° Northwest 445 512 34,000  Level Atlanta Center
03:04PM 34.1153 -86.2117 332° Northwest 450 518 34,000  Level Atlanta Center
03:05PM 34.2267 -86.2822 332° Northwest 450 518 34,000  Level Atlanta Center
03:06PM 34.3381 -86.3508 333° Northwest 445 512 34,000  Level Atlanta Center
03:07PM 34.4475 -86.4192 333° Northwest 445 512 34,000  Level Atlanta Center
03:08PM 34.5567 -86.4903 332° Northwest 445 512 34,000  Level Atlanta Center
03:09PM 34.6681 -86.5617 332° Northwest 445 512 34,000  Level Atlanta Center
03:10PM 34.7792 -86.6283 334° Northwest 445 512 34,000  Level Atlanta Center
03:11PM 34.9075 -86.7144 331° Northwest 447 514 34,000  Level Memphis Center
03:12PM 35.0167 -86.7858 332° Northwest 447 514 34,000  Level Memphis Center
03:13PM 35.1453 -86.8686 332° Northwest 445 512 34,000  Level Memphis Center
03:14PM 35.2558 -86.9406 332° Northwest 445 512 34,000  Level Memphis Center
03:15PM 35.3656 -87.0122 332° Northwest 447 514 34,000  Level Memphis Center
03:16PM 35.4719 -87.0833 331° Northwest 444 511 34,000  Level Memphis Center
03:17PM 35.5803 -87.1533 332° Northwest 441 507 34,000  Level Memphis Center
03:18PM 35.6906 -87.2261 332° Northwest 441 507 34,000  Level Memphis Center
03:19PM 35.8197 -87.3106 332° Northwest 443 510 34,000  Level Memphis Center
03:20PM 35.9294 -87.3828 332° Northwest 443 510 34,000  Level Memphis Center
03:21PM 36.0381 -87.4547 332° Northwest 441 507 34,000  Level Memphis Center
03:22PM 36.1461 -87.5247 332° Northwest 436 502 34,000  Level Memphis Center
03:24PM 36.3611 -87.6681 332° Northwest 433 498 34,000  Level Memphis Center
03:25PM 36.4672 -87.7394 332° Northwest 433 498 34,000  Level Memphis Center
03:26PM 36.5722 -87.8097 332° Northwest 429 494 34,000  Level Memphis Center
03:28PM 36.6758 -87.8800 331° Northwest 425 489 34,000  Level Memphis Center
03:29PM 36.7817 -87.9503 332° Northwest 424 488 34,000  Level Memphis Center
03:30PM 36.8842 -88.0217 331° Northwest 421 484 34,000  Level Memphis Center
03:31PM 37.0072 -88.1047 332° Northwest 421 484 34,000  Level Memphis Center
03:32PM 37.1050 -88.1711 332° Northwest 428 493 34,000  Level Memphis Center
03:33PM 37.2100 -88.2439 331° Northwest 430 495 34,000  Level Memphis Center
03:34PM 37.3139 -88.3156 331° Northwest 431 496 34,000  Level Memphis Center
03:35PM 37.4372 -88.4000 331° Northwest 425 489 34,000  Level Memphis Center
03:36PM 37.5425 -88.4742 331° Northwest 429 494 34,000  Level Memphis Center
03:37PM 37.6450 -88.5444 332° Northwest 426 490 34,000  Level Memphis Center
03:38PM 37.7467 -88.6161 331° Northwest 422 486 34,000  Level Memphis Center
03:39PM 37.8494 -88.6875 331° Northwest 422 486 34,000  Level Memphis Center
03:40PM 37.9556 -88.7603 332° Northwest 429 494 34,000  Level Memphis Center
03:41PM 38.1017 -88.8633 331° Northwest 433 498 34,000  Level Kansas City Center
03:42PM 38.2261 -88.9525 331° Northwest 432 497 34,000  Level Kansas City Center
03:43PM 38.3294 -89.0253 331° Northwest 431 496 34,000  Level Kansas City Center
03:44PM 38.4286 -89.0950 331° Northwest 430 495 34,000  Level Kansas City Center
03:45PM 38.5344 -89.1703 331° Northwest 430 495 34,000  Level Kansas City Center
03:46PM 38.6419 -89.2475 331° Northwest 430 495 34,000  Level Kansas City Center
03:48PM 38.7525 -89.3267 331° Northwest 430 495 34,000  Level Kansas City Center
03:49PM 38.8575 -89.4039 330° Northwest 430 495 34,000  Level Kansas City Center
03:50PM 38.9750 -89.4869 331° Northwest 430 495 34,000  Level Kansas City Center
03:51PM 39.0786 -89.5639 330° Northwest 430 495 34,000  Level Kansas City Center
03:52PM 39.1828 -89.6397 331° Northwest 431 496 34,000  Level Kansas City Center
03:53PM 39.2886 -89.7161 331° Northwest 434 499 34,000  Level Kansas City Center
03:54PM 39.4131 -89.8072 331° Northwest 434 499 34,000  Level Kansas City Center
03:55PM 39.5169 -89.8861 330° Northwest 434 499 34,000  Level Kansas City Center
03:56PM 39.6222 -89.9639 330° Northwest 435 501 34,000  Level Kansas City Center
03:57PM 39.7264 -90.0414 330° Northwest 435 501 34,000  Level Kansas City Center
03:58PM 39.8456 -90.1317 330° Northwest 435 501 34,000 -295 Level Kansas City Center
03:59PM 39.9514 -90.2108 330° Northwest 434 499 33,400 -810 Descending Kansas City Center
04:00PM 40.0586 -90.2917 330° Northwest 438 504 32,300 -677 Descending Kansas City Center
04:01PM 40.1661 -90.3722 330° Northwest 439 505 32,000 -148 Descending Kansas City Center
04:02PM 40.2731 -90.4536 330° Northwest 439 505 32,000 -384 Level Kansas City Center
04:03PM 40.3811 -90.5358 330° Northwest 440 506 31,200 -1,476 Descending Kansas City Center
04:04PM 40.4903 -90.6189 330° Northwest 446 513 28,900 -2,448 Descending Kansas City Center
04:05PM 40.6231 -90.7194 330° Northwest 451 519 26,100 -2,341 Descending Kansas City Center
04:06PM 40.7319 -90.8042 329° Northwest 452 520 24,100 -1,892 Descending Kansas City Center
04:07PM 40.8614 -90.9036 330° Northwest 451 519 22,000 -2,061 Descending Chicago Center
04:08PM 40.9644 -90.9844 329° Northwest 434 499 19,600 -2,081 Descending Chicago Center
04:09PM 41.0639 -91.0606 330° Northwest 417 480 17,700 -1,935 Descending Chicago Center
04:10PM 41.1597 -91.1356 329° Northwest 403 464 15,600 -1,984 Descending Chicago Center
04:11PM 41.2514 -91.2078 329° Northwest 391 450 13,600 -1,935 Descending Chicago Center
04:12PM 41.3392 -91.2761 330° Northwest 372 428 11,600 -1,258 Descending Chicago Center
04:13PM 41.4311 -91.3508 329° Northwest 330 380 11,000 -960 Descending Chicago Center
04:15PM 41.4911 -91.4181 320° Northwest 292 336 9,600 -1,632 Descending Chicago Center
04:16PM 41.5519 -91.4828 321° Northwest 285 328 7,600 -1,935 Descending Chicago Center
04:17PM 41.6128 -91.5453 322° Northwest 281 323 5,600 -1,742 Descending Chicago Center
04:18PM 41.6700 -91.6072 321° Northwest 274 315 4,000 -1,258 Descending Chicago Center
04:19PM 41.7314 -91.6736 321° Northwest 254 292 3,000 -726 Descending Chicago Center
04:20PM 41.7778 -91.7225 322° Northwest 234 269 2,500 -339 Descending Chicago Center
04:21PM 41.8189 -91.7689 320° Northwest 214 246 2,300 -290 Descending Chicago Center
04:22PM 41.8453 -91.8222 304° West 203 234 1,900 -192 Descending Chicago Center
04:23PM 41.8842 -91.8075 16° North 173 199 1,900 -192 Level Chicago Center
04:24PM 41.8881 -91.7483 85° East 160 184 1,500 -387 Descending Chicago Center